createdAt,value
2023-05-04T00:00:47.967Z,499.53
2023-05-04T00:05:58.477Z,510.30
2023-05-04T00:11:01.532Z,492.23
2023-05-04T00:16:03.714Z,482.40
2023-05-04T00:21:06.648Z,446.63
2023-05-04T00:26:11.025Z,460.77
2023-05-04T00:31:12.916Z,433.10
2023-05-04T00:36:15.883Z,439.10
2023-05-04T00:41:19.148Z,470.20
2023-05-04T00:46:23.281Z,453.17
2023-05-04T00:51:27.289Z,418.92
2023-05-04T00:56:29.962Z,411.40
2023-05-04T01:01:31.932Z,423.15
2023-05-04T01:06:34.415Z,437.27
2023-05-04T01:11:45.257Z,432.33
2023-05-04T01:16:47.428Z,454.00
2023-05-04T01:21:50.685Z,503.57
2023-05-04T01:26:57.450Z,424.13
2023-05-04T01:32:02.394Z,442.57
2023-05-04T01:37:04.516Z,484.90
2023-05-04T01:42:07.387Z,509.13
2023-05-04T01:47:09.352Z,425.57
2023-05-04T01:52:11.720Z,468.20
2023-05-04T01:57:13.612Z,460.33
2023-05-04T02:02:15.463Z,482.30
2023-05-04T02:07:17.519Z,385.60
2023-05-04T02:12:19.473Z,374.53
2023-05-04T02:17:21.445Z,321.10
2023-05-04T02:22:23.531Z,389.83
2023-05-04T02:27:27.995Z,462.17
2023-05-04T02:32:31.294Z,475.67
2023-05-04T02:37:37.252Z,474.87
2023-05-04T02:42:39.073Z,379.50
2023-05-04T02:47:41.375Z,438.17
2023-05-04T02:52:43.589Z,435.63
2023-05-04T02:57:48.288Z,403.33
2023-05-04T03:02:50.578Z,412.25
2023-05-04T03:07:53.195Z,432.97
2023-05-04T03:12:55.086Z,427.45
2023-05-04T03:17:57.396Z,432.98
2023-05-04T03:22:59.496Z,370.67
2023-05-04T03:28:01.933Z,334.27
2023-05-04T03:33:04.096Z,466.80
2023-05-04T03:38:07.647Z,438.90
2023-05-04T03:43:10.030Z,407.88
2023-05-04T03:48:12.106Z,445.03
2023-05-04T03:53:14.466Z,346.90
2023-05-04T03:58:18.674Z,459.10
2023-05-04T04:03:23.810Z,459.33
2023-05-04T04:08:27.845Z,450.43
2023-05-04T04:13:31.842Z,407.77
2023-05-04T04:18:35.332Z,409.23
2023-05-04T04:23:38.037Z,210.60
2023-05-04T04:28:41.333Z,349.87
2023-05-04T04:33:43.906Z,476.73
2023-05-04T04:38:54.790Z,459.20
2023-05-04T04:43:56.976Z,416.37
2023-05-04T04:49:01.832Z,416.13
2023-05-04T04:54:04.415Z,464.93
2023-05-04T04:59:07.406Z,433.50
2023-05-04T05:04:11.796Z,413.50
2023-05-04T05:09:15.011Z,432.60
2023-05-04T05:14:16.905Z,394.80
2023-05-04T05:19:19.055Z,412.40
2023-05-04T05:24:21.330Z,483.00
2023-05-04T05:29:25.612Z,450.97
2023-05-04T05:34:28.289Z,447.90
2023-05-04T05:39:30.576Z,440.77
2023-05-04T05:44:38.638Z,460.00
2023-05-04T05:49:41.892Z,499.17
2023-05-04T05:54:44.947Z,501.37
2023-05-04T05:59:48.543Z,505.70
2023-05-04T06:05:08.687Z,475.73
2023-05-04T06:10:11.219Z,494.07
2023-05-04T06:15:14.466Z,515.93
2023-05-04T06:20:16.539Z,495.27
2023-05-04T06:25:19.440Z,492.00
2023-05-04T06:30:24.395Z,477.58
2023-05-04T06:35:31.916Z,526.63
2023-05-04T06:40:35.348Z,494.97
2023-05-04T06:45:41.521Z,521.60
2023-05-04T06:50:43.838Z,548.23
2023-05-04T06:55:46.043Z,566.17
2023-05-04T07:00:49.338Z,514.70
2023-05-04T07:05:51.763Z,563.43
2023-05-04T07:10:53.758Z,584.27
2023-05-04T07:15:59.123Z,590.57
2023-05-04T07:21:16.282Z,564.23
2023-05-04T07:26:23.759Z,555.53
2023-05-04T07:31:30.092Z,563.03
2023-05-04T07:36:35.617Z,589.45
2023-05-04T07:41:37.899Z,595.75
2023-05-04T07:46:42.789Z,614.00
2023-05-04T07:51:44.705Z,640.27
2023-05-04T07:56:47.092Z,639.33
2023-05-04T08:01:49.104Z,663.77
2023-05-04T08:06:51.431Z,681.10
2023-05-04T08:11:58.520Z,662.77
2023-05-04T08:17:03.004Z,715.33
2023-05-04T08:22:05.966Z,731.60
2023-05-04T08:27:09.030Z,743.20
2023-05-04T08:32:11.910Z,691.43
2023-05-04T08:37:13.762Z,688.57
2023-05-04T08:42:27.080Z,712.00
2023-05-04T08:47:32.129Z,754.88
2023-05-04T08:52:38.123Z,733.10
2023-05-04T08:57:42.742Z,752.78
2023-05-04T09:02:45.869Z,756.88
2023-05-04T09:07:51.057Z,784.92
2023-05-04T09:12:59.029Z,792.65
2023-05-04T09:18:06.638Z,811.78
2023-05-04T09:23:13.694Z,809.60
2023-05-04T09:28:17.888Z,814.90
2023-05-04T09:33:30.116Z,831.33
2023-05-04T09:38:32.630Z,839.85
2023-05-04T09:43:44.923Z,842.47
2023-05-04T09:49:00.355Z,859.95
2023-05-04T09:54:04.956Z,874.00
2023-05-04T09:59:08.817Z,878.28
2023-05-04T10:04:10.749Z,900.35
2023-05-04T10:09:13.647Z,886.25
2023-05-04T10:14:15.534Z,910.63
2023-05-04T10:19:31.788Z,898.85
2023-05-04T10:24:36.296Z,905.45
2023-05-04T10:29:40.865Z,917.92
2023-05-04T10:34:45.668Z,920.85
2023-05-04T10:39:54.478Z,930.92
2023-05-04T10:44:57.923Z,930.40
2023-05-04T10:50:11.103Z,945.58
2023-05-04T10:55:22.158Z,959.67
2023-05-04T11:00:43.709Z,956.45
2023-05-04T11:05:51.053Z,970.80
2023-05-04T11:11:12.676Z,970.53
2023-05-04T11:16:24.715Z,968.78
2023-05-04T11:21:28.576Z,970.33
2023-05-04T11:26:30.507Z,974.15
2023-05-04T11:31:36.134Z,975.25
2023-05-04T11:36:38.721Z,983.42
2023-05-04T11:41:44.743Z,993.40
2023-05-04T11:46:48.165Z,995.43
2023-05-04T11:51:50.654Z,999.90
2023-05-04T11:57:01.313Z,999.90
2023-05-04T12:02:04.268Z,999.90
2023-05-04T12:07:08.575Z,999.90
2023-05-04T12:12:11.995Z,999.90
2023-05-04T12:17:14.713Z,999.90
2023-05-04T12:22:18.072Z,999.90
2023-05-04T12:27:20.304Z,999.90
2023-05-04T12:32:22.520Z,999.90
2023-05-04T12:37:32.593Z,999.90
2023-05-04T12:42:42.255Z,999.90
2023-05-04T12:47:44.138Z,999.90
2023-05-04T12:52:52.309Z,999.90
2023-05-04T12:57:54.298Z,999.90
2023-05-04T13:02:56.259Z,999.90
2023-05-04T13:07:58.386Z,999.90
2023-05-04T13:13:03.466Z,999.90
2023-05-04T13:18:07.913Z,999.90
2023-05-04T13:23:10.400Z,999.90
2023-05-04T13:28:12.292Z,999.90
2023-05-04T13:33:28.743Z,999.90
2023-05-04T13:38:31.225Z,999.90
2023-05-04T13:43:33.172Z,999.90
2023-05-04T13:48:36.798Z,999.90
2023-05-04T13:53:39.129Z,999.90
2023-05-04T13:58:40.950Z,999.90
2023-05-04T14:03:42.878Z,999.90
2023-05-04T14:08:44.786Z,999.90
2023-05-04T14:13:49.306Z,999.90
2023-05-04T14:18:52.514Z,999.90
2023-05-04T14:23:55.425Z,999.90
2023-05-04T14:28:57.313Z,999.90
2023-05-04T14:33:59.854Z,999.90
2023-05-04T14:39:02.962Z,999.90
2023-05-04T14:44:05.586Z,999.90
2023-05-04T14:49:07.850Z,999.90
2023-05-04T14:54:09.682Z,999.90
2023-05-04T14:59:11.675Z,999.90
2023-05-04T15:04:13.705Z,999.90
2023-05-04T15:09:16.677Z,999.90
2023-05-04T15:14:18.637Z,999.90
2023-05-04T15:19:21.683Z,999.90
2023-05-04T15:24:24.865Z,999.90
2023-05-04T15:29:29.627Z,999.90
2023-05-04T15:34:33.712Z,999.90
2023-05-04T15:39:37.928Z,999.90
2023-05-04T15:44:40.239Z,999.90
2023-05-04T15:49:42.937Z,999.90
2023-05-04T15:54:48.798Z,999.90
2023-05-04T15:59:51.316Z,999.90
2023-05-04T16:05:16.485Z,999.90
2023-05-04T16:10:18.438Z,999.90
2023-05-04T16:15:23.548Z,999.90
2023-05-04T16:20:26.695Z,999.90
2023-05-04T16:25:29.732Z,999.90
2023-05-04T16:30:33.381Z,999.90
2023-05-04T16:35:37.055Z,999.90
2023-05-04T16:40:41.594Z,999.90
2023-05-04T16:45:45.834Z,999.90
2023-05-04T16:50:49.149Z,999.90
2023-05-04T16:55:51.506Z,999.90
2023-05-04T17:00:53.969Z,999.90
2023-05-04T17:05:56.259Z,999.90
2023-05-04T17:11:05.772Z,999.90
2023-05-04T17:16:08.761Z,999.90
2023-05-04T17:21:10.760Z,999.90
2023-05-04T17:26:12.705Z,999.90
2023-05-04T17:31:17.586Z,999.90
2023-05-04T17:36:19.477Z,999.90
2023-05-04T17:41:21.943Z,999.90
2023-05-04T17:46:26.074Z,999.25
2023-05-04T17:51:34.792Z,998.42
2023-05-04T17:56:40.899Z,997.00
2023-05-04T18:01:48.856Z,990.53
2023-05-04T18:06:51.183Z,991.22
2023-05-04T18:11:56.002Z,996.20
2023-05-04T18:16:57.957Z,983.25
2023-05-04T18:22:03.324Z,979.15
2023-05-04T18:27:06.602Z,974.40
2023-05-04T18:32:16.786Z,970.97
2023-05-04T18:37:18.767Z,964.95
2023-05-04T18:42:20.664Z,964.70
2023-05-04T18:47:23.271Z,961.15
2023-05-04T18:52:25.685Z,958.17
2023-05-04T18:57:29.971Z,945.33
2023-05-04T19:02:33.439Z,942.67
2023-05-04T19:07:35.461Z,932.25
2023-05-04T19:12:38.459Z,937.15
2023-05-04T19:17:41.023Z,934.45
2023-05-04T19:22:43.875Z,925.40
2023-05-04T19:27:46.479Z,916.65
2023-05-04T19:32:49.384Z,911.72
2023-05-04T19:37:52.351Z,905.33
2023-05-04T19:42:55.699Z,895.88
2023-05-04T19:47:57.631Z,894.03
2023-05-04T19:52:59.566Z,889.90
2023-05-04T19:58:02.349Z,878.10
2023-05-04T20:03:04.830Z,883.13
2023-05-04T20:08:09.682Z,880.28
2023-05-04T20:13:11.816Z,886.38
2023-05-04T20:18:13.862Z,862.28
2023-05-04T20:23:19.042Z,862.60
2023-05-04T20:28:23.505Z,866.50
2023-05-04T20:33:25.759Z,864.22
2023-05-04T20:38:27.669Z,860.28
2023-05-04T20:43:29.554Z,864.80
2023-05-04T20:48:31.854Z,856.63
2023-05-04T20:53:39.742Z,853.65
2023-05-04T20:58:45.241Z,843.47
2023-05-04T21:03:47.630Z,842.70
2023-05-04T21:08:53.424Z,841.30
2023-05-04T21:13:55.320Z,845.42
2023-05-04T21:18:59.576Z,849.28
2023-05-04T21:29:19.146Z,842.17
2023-05-04T21:34:21.172Z,841.55
2023-05-04T21:39:25.155Z,836.53
2023-05-04T21:44:27.328Z,832.25
2023-05-04T21:49:29.324Z,835.63
2023-05-04T21:54:36.068Z,817.58
2023-05-04T21:59:38.034Z,823.17
2023-05-04T22:04:43.861Z,819.35
2023-05-04T22:09:46.716Z,817.17
2023-05-04T22:14:49.014Z,824.35
2023-05-04T22:19:50.842Z,821.03
2023-05-04T22:24:52.668Z,826.35
2023-05-04T22:29:54.996Z,823.50
2023-05-04T22:35:00.225Z,826.25
2023-05-04T22:40:05.089Z,821.70
2023-05-04T22:45:08.921Z,817.40
2023-05-04T22:50:11.341Z,827.47
2023-05-04T22:55:13.530Z,818.40
2023-05-04T23:00:19.625Z,819.30
2023-05-04T23:05:21.898Z,817.33
2023-05-04T23:10:26.206Z,820.47
2023-05-04T23:15:30.745Z,806.60
2023-05-04T23:20:39.102Z,818.22
2023-05-04T23:25:41.305Z,810.38
2023-05-04T23:30:47.442Z,808.08
2023-05-04T23:35:50.076Z,800.65
2023-05-04T23:40:53.947Z,797.45
2023-05-04T23:46:03.938Z,792.10
2023-05-04T23:51:07.161Z,804.45
2023-05-04T23:56:19.490Z,781.50
